Latta, South Carolina
Current Conditions -  °F | °C
As of 2:15 PM on Monday 24 Nov 2014 (Local Time) from KMAO Reporting Station
Overcast Overcast  
Wind Chill: 68°   Ceiling: 3400
Heat Index: 68°   Visibility: 7mi
Dew Point: 64°   Wind: 5mph
Humidity: 88%   Direction: 200°SSW
Pressure: 29.83"   Gusts: NA
Location:  34.34°N, 79.43°W
Report Text: KMAO 241915Z AUTO 20004KT 7SM OVC034 20/18 A2983 RMK AO2
Loading
Personal Weather Stations






























Interactive Weather Map New forecast layout! Learn more

10-Day Weather Forecast

Advertisements
Track Severe Weather on mobile